Time;durP1;ratioP1;P1;durP2;ratioP2;P2;SDS_P1;SDS_P2;PMS_P1;PMS_P2;Temp;Humidity;BMP_temperature;BMP_pressure;BME280_temperature;BME280_humidity;BME280_pressure;Samples;Min_cycle;Max_cycle;Signal;HPM_P1;HPM_P2
2021/11/21 00:00:06;;;;;;;3.78;2.80;;;7.30;99.90;;;;;;5036394;28;20238;-74
2021/11/21 00:02:34;;;;;;;3.15;2.90;;;7.30;99.90;;;;;;5038754;28;20732;-73
2021/11/21 00:05:03;;;;;;;2.70;2.45;;;7.30;99.90;;;;;;5037079;28;20227;-73
2021/11/21 00:07:30;;;;;;;2.67;2.47;;;7.30;99.90;;;;;;5036786;28;20229;-75
2021/11/21 00:09:59;;;;;;;2.78;2.47;;;7.30;99.90;;;;;;5038637;28;20230;-73
2021/11/21 00:12:26;;;;;;;2.33;2.22;;;7.30;99.90;;;;;;5038251;28;20296;-74
2021/11/21 00:14:55;;;;;;;2.63;2.42;;;7.30;99.90;;;;;;5039162;28;20246;-73
2021/11/21 00:17:22;;;;;;;2.35;2.15;;;7.30;99.90;;;;;;5037167;28;20586;-73
2021/11/21 00:19:49;;;;;;;2.30;2.17;;;7.30;99.90;;;;;;5034160;28;20218;-73
2021/11/21 00:22:16;;;;;;;2.50;2.38;;;7.30;99.90;;;;;;5039858;28;20233;-73
2021/11/21 00:24:44;;;;;;;2.90;2.70;;;7.30;99.90;;;;;;5038313;28;20492;-73
2021/11/21 00:27:12;;;;;;;2.42;2.20;;;7.30;99.90;;;;;;5040255;28;20702;-73
2021/11/21 00:29:39;;;;;;;2.38;2.28;;;7.30;99.90;;;;;;5041896;28;20225;-73
2021/11/21 00:32:08;;;;;;;3.03;2.83;;;7.20;99.90;;;;;;5039612;28;20250;-73
2021/11/21 00:34:36;;;;;;;2.90;2.60;;;7.20;99.90;;;;;;5040472;28;20582;-74
2021/11/21 00:37:03;;;;;;;2.80;2.60;;;7.20;99.90;;;;;;5039087;28;20227;-73
2021/11/21 00:39:30;;;;;;;3.25;3.03;;;7.20;99.90;;;;;;5042580;28;20215;-73
2021/11/21 00:41:58;;;;;;;2.60;2.40;;;7.10;99.90;;;;;;5044950;28;20222;-73
2021/11/21 00:44:25;;;;;;;2.72;2.42;;;7.10;99.90;;;;;;5045647;28;20218;-73
2021/11/21 00:46:52;;;;;;;2.70;2.50;;;7.10;99.90;;;;;;5045189;28;20222;-74
2021/11/21 00:49:21;;;;;;;2.65;2.45;;;7.10;99.90;;;;;;5041920;28;20328;-73
2021/11/21 00:51:49;;;;;;;2.38;2.17;;;7.10;99.90;;;;;;5041393;28;20703;-73
2021/11/21 00:54:26;;;;;;;2.60;2.50;;;7.10;99.90;;;;;;5042799;28;20719;-73
2021/11/21 00:56:54;;;;;;;2.63;2.42;;;7.10;99.90;;;;;;5040381;28;20707;-73
2021/11/21 00:59:21;;;;;;;2.60;2.40;;;7.10;99.90;;;;;;5042589;28;20223;-73
2021/11/21 01:01:49;;;;;;;3.03;2.83;;;7.00;99.90;;;;;;5042340;28;20231;-73
2021/11/21 01:04:17;;;;;;;2.33;2.22;;;7.00;99.90;;;;;;5040619;28;20282;-73
2021/11/21 01:06:46;;;;;;;2.30;2.20;;;7.00;99.90;;;;;;5043938;28;20242;-73
2021/11/21 01:09:14;;;;;;;2.47;2.38;;;6.90;99.90;;;;;;5042921;28;20226;-73
2021/11/21 01:11:42;;;;;;;4.20;2.50;;;6.90;99.90;;;;;;5062118;23;20645;-77
2021/11/21 01:14:10;;;;;;;2.28;2.17;;;6.90;99.90;;;;;;5039263;28;20238;-75
2021/11/21 01:16:38;;;;;;;2.53;2.38;;;6.90;99.90;;;;;;5036898;28;20223;-77
2021/11/21 01:19:05;;;;;;;2.30;2.20;;;6.90;99.90;;;;;;5039823;28;20222;-77
2021/11/21 01:21:32;;;;;;;2.55;2.35;;;6.90;99.90;;;;;;5042002;28;20223;-77
2021/11/21 01:24:01;;;;;;;2.72;2.53;;;6.80;99.90;;;;;;5042719;28;20227;-77
2021/11/21 01:26:28;;;;;;;3.70;2.63;;;6.80;99.90;;;;;;5042197;28;20226;-76
2021/11/21 01:28:55;;;;;;;2.85;2.65;;;6.80;99.90;;;;;;5039525;28;20239;-77
2021/11/21 01:31:22;;;;;;;2.65;2.35;;;6.80;99.90;;;;;;5042674;28;20223;-76
2021/11/21 01:33:50;;;;;;;2.80;2.60;;;6.70;99.90;;;;;;5036374;28;20744;-77
2021/11/21 01:36:17;;;;;;;2.47;2.38;;;6.70;99.90;;;;;;5034165;28;20219;-76
2021/11/21 01:38:44;;;;;;;2.38;2.13;;;6.60;99.90;;;;;;5034667;28;20230;-78
2021/11/21 01:41:13;;;;;;;3.03;2.83;;;6.60;99.90;;;;;;5033371;28;20250;-77
2021/11/21 01:43:41;;;;;;;2.42;2.22;;;6.50;99.90;;;;;;5034401;28;20598;-77
2021/11/21 01:46:09;;;;;;;3.15;2.95;;;6.50;99.90;;;;;;5035790;28;20231;-78
2021/11/21 01:48:38;;;;;;;2.80;2.60;;;6.50;99.90;;;;;;5037050;28;20600;-76
2021/11/21 01:51:07;;;;;;;2.80;2.60;;;6.50;99.90;;;;;;5034815;28;20238;-77
2021/11/21 01:53:35;;;;;;;2.50;2.40;;;6.50;99.90;;;;;;5041458;28;20211;-77
2021/11/21 01:56:03;;;;;;;2.60;2.40;;;6.60;99.90;;;;;;5041592;28;20234;-77
2021/11/21 01:58:31;;;;;;;3.00;2.80;;;6.60;99.90;;;;;;5033749;28;20509;-75
2021/11/21 02:00:58;;;;;;;2.72;2.53;;;6.60;99.90;;;;;;5032192;28;20241;-75
2021/11/21 02:03:26;;;;;;;2.33;2.22;;;6.60;99.90;;;;;;5033545;28;20242;-77
2021/11/21 02:05:53;;;;;;;2.90;2.70;;;6.50;99.90;;;;;;5037446;28;20233;-77
2021/11/21 02:08:20;;;;;;;2.83;2.63;;;6.50;99.90;;;;;;5035882;28;20226;-77
2021/11/21 02:10:47;;;;;;;2.33;2.22;;;6.50;99.90;;;;;;5035871;28;20234;-77
2021/11/21 02:13:14;;;;;;;2.80;2.60;;;6.40;99.90;;;;;;5036498;28;20226;-77
2021/11/21 02:15:45;;;;;;;2.97;2.78;;;6.40;99.90;;;;;;5033939;28;20622;-77
2021/11/21 02:18:13;;;;;;;2.90;2.70;;;6.40;99.90;;;;;;5034102;28;20222;-77
2021/11/21 02:20:50;;;;;;;2.90;2.70;;;6.40;99.90;;;;;;5034085;28;20749;-77
2021/11/21 02:23:18;;;;;;;2.90;2.70;;;6.40;99.90;;;;;;5035192;28;20231;-77
2021/11/21 02:25:45;;;;;;;2.80;2.60;;;6.40;99.90;;;;;;5034245;28;20238;-77
2021/11/21 02:28:12;;;;;;;3.92;2.65;;;6.40;99.90;;;;;;5034595;28;21915;-76
2021/11/21 02:30:39;;;;;;;2.67;2.47;;;6.40;99.90;;;;;;5037395;28;20230;-77
2021/11/21 02:33:10;;;;;;;2.50;2.40;;;6.40;99.90;;;;;;5041959;28;20723;-77
2021/11/21 02:35:40;;;;;;;2.75;2.55;;;6.40;99.90;;;;;;5032576;28;20237;-77
2021/11/21 02:38:10;;;;;;;2.50;2.40;;;6.40;99.90;;;;;;5035147;28;20245;-77
2021/11/21 02:40:37;;;;;;;2.72;2.53;;;6.30;99.90;;;;;;5033006;28;20735;-77
2021/11/21 02:43:05;;;;;;;2.50;2.40;;;6.30;99.90;;;;;;5030556;28;20475;-77
2021/11/21 02:45:33;;;;;;;2.53;2.40;;;6.30;99.90;;;;;;5033582;28;20222;-77
2021/11/21 02:48:00;;;;;;;2.58;2.38;;;6.30;99.90;;;;;;5036820;28;20223;-76
2021/11/21 02:50:29;;;;;;;3.15;2.95;;;6.30;99.90;;;;;;5033785;28;20695;-77
2021/11/21 02:52:57;;;;;;;2.83;2.63;;;6.30;99.90;;;;;;5036061;28;20227;-77
2021/11/21 02:55:29;;;;;;;2.83;2.63;;;6.30;99.90;;;;;;5035509;28;20338;-77
2021/11/21 02:57:57;;;;;;;2.60;2.50;;;6.20;99.90;;;;;;5031187;28;20480;-76
2021/11/21 03:00:24;;;;;;;2.13;2.03;;;6.20;99.90;;;;;;5031163;28;20226;-77
2021/11/21 03:02:51;;;;;;;2.42;2.22;;;6.20;99.90;;;;;;5034000;28;20231;-77
2021/11/21 03:05:20;;;;;;;3.33;2.65;;;6.10;99.90;;;;;;5032915;28;20235;-77
2021/11/21 03:07:48;;;;;;;2.90;2.70;;;6.10;99.90;;;;;;5031318;28;20227;-77
2021/11/21 03:10:19;;;;;;;2.50;2.40;;;6.10;99.90;;;;;;5035884;28;20243;-77
2021/11/21 03:12:49;;;;;;;2.58;2.38;;;6.10;99.90;;;;;;5031423;28;20229;-77
2021/11/21 03:15:16;;;;;;;2.58;2.38;;;6.10;99.90;;;;;;5032916;28;20608;-77
2021/11/21 03:17:44;;;;;;;2.60;2.40;;;6.00;99.90;;;;;;5032285;28;20716;-76
2021/11/21 03:20:14;;;;;;;3.30;3.00;;;6.00;99.90;;;;;;5033383;28;20226;-76
2021/11/21 03:22:43;;;;;;;3.00;2.80;;;6.00;99.90;;;;;;5033236;28;20268;-77
2021/11/21 03:25:12;;;;;;;3.22;2.92;;;6.00;99.90;;;;;;5037910;28;20230;-77
2021/11/21 03:27:39;;;;;;;3.28;3.00;;;6.00;99.90;;;;;;5033011;28;21024;-77
2021/11/21 03:30:09;;;;;;;3.40;3.20;;;6.00;99.90;;;;;;5039397;28;20227;-77
2021/11/21 03:32:37;;;;;;;2.97;2.78;;;6.00;99.90;;;;;;5039206;28;20772;-77
2021/11/21 03:35:05;;;;;;;2.75;2.55;;;5.90;99.90;;;;;;5040022;28;20732;-77
2021/11/21 03:37:32;;;;;;;3.28;3.03;;;5.90;99.90;;;;;;5034561;28;20230;-75
2021/11/21 03:39:59;;;;;;;3.22;3.03;;;5.90;99.90;;;;;;5035145;28;20229;-76
2021/11/21 03:42:27;;;;;;;2.90;2.70;;;5.90;99.90;;;;;;5031564;28;20258;-77
2021/11/21 03:44:54;;;;;;;2.97;2.78;;;5.90;99.90;;;;;;5037167;28;20728;-77
2021/11/21 03:47:23;;;;;;;3.17;2.97;;;5.90;99.90;;;;;;5035125;28;20291;-76
2021/11/21 03:49:50;;;;;;;3.13;2.92;;;6.00;99.90;;;;;;5034825;28;20227;-77
2021/11/21 03:52:17;;;;;;;3.35;3.05;;;5.90;99.90;;;;;;5035739;28;20355;-75
2021/11/21 03:54:44;;;;;;;3.00;2.80;;;5.90;99.90;;;;;;5043065;28;20235;-77
2021/11/21 03:57:11;;;;;;;2.70;2.50;;;5.90;99.90;;;;;;5041381;28;20780;-74
2021/11/21 03:59:38;;;;;;;2.92;2.72;;;5.90;99.90;;;;;;5035152;28;20226;-77
2021/11/21 04:02:06;;;;;;;3.00;2.80;;;5.90;99.90;;;;;;5038056;28;20231;-77
2021/11/21 04:04:34;;;;;;;3.00;2.80;;;5.90;99.90;;;;;;5031765;28;20248;-77
2021/11/21 04:07:02;;;;;;;2.80;2.60;;;5.80;99.90;;;;;;5031833;28;20234;-77
2021/11/21 04:09:29;;;;;;;3.10;2.90;;;5.80;99.90;;;;;;5031712;28;20606;-76
2021/11/21 04:11:56;;;;;;;2.90;2.80;;;5.80;99.90;;;;;;5032336;28;20238;-76
2021/11/21 04:14:23;;;;;;;3.13;2.92;;;5.70;99.90;;;;;;5036591;28;22242;-77
2021/11/21 04:16:50;;;;;;;2.95;2.75;;;5.70;99.90;;;;;;5019311;28;20223;-77
2021/11/21 04:19:17;;;;;;;3.20;2.92;;;5.70;99.90;;;;;;5035289;28;20230;-76
2021/11/21 04:21:46;;;;;;;3.00;2.80;;;5.60;99.90;;;;;;5034823;28;20238;-77
2021/11/21 04:24:15;;;;;;;3.30;3.10;;;5.60;99.90;;;;;;5035852;28;20230;-77
2021/11/21 04:26:44;;;;;;;3.35;3.15;;;5.60;99.90;;;;;;5038500;28;20603;-76
2021/11/21 04:29:11;;;;;;;2.70;2.60;;;5.60;99.90;;;;;;5035633;28;20226;-77
2021/11/21 04:31:39;;;;;;;2.90;2.70;;;5.60;99.90;;;;;;5035750;28;20234;-77
2021/11/21 04:34:06;;;;;;;2.70;2.50;;;5.60;99.90;;;;;;5042148;28;20605;-77
2021/11/21 04:36:33;;;;;;;2.50;2.40;;;5.70;99.90;;;;;;5035070;28;20222;-76
2021/11/21 04:39:03;;;;;;;2.70;2.60;;;5.70;99.90;;;;;;5036749;28;20633;-77
2021/11/21 04:41:30;;;;;;;2.80;2.60;;;5.70;99.90;;;;;;5037991;28;20310;-77
2021/11/21 04:43:58;;;;;;;2.40;2.25;;;5.70;99.90;;;;;;5043834;28;20215;-75
2021/11/21 04:46:25;;;;;;;2.60;2.50;;;5.70;99.90;;;;;;5043598;28;20230;-77
2021/11/21 04:48:53;;;;;;;4.45;2.95;;;5.70;99.90;;;;;;5042942;28;20254;-77
2021/11/21 04:51:20;;;;;;;2.90;2.70;;;5.70;99.90;;;;;;5044503;28;20226;-77
2021/11/21 04:53:47;;;;;;;2.97;2.78;;;5.70;99.90;;;;;;5044379;28;20234;-77
2021/11/21 04:56:16;;;;;;;3.15;2.95;;;5.70;99.90;;;;;;5041861;28;20223;-77
2021/11/21 04:58:43;;;;;;;3.10;2.90;;;5.70;99.90;;;;;;5045195;28;20218;-77
2021/11/21 05:01:10;;;;;;;2.72;2.53;;;5.70;99.90;;;;;;5042941;28;20238;-75
2021/11/21 05:03:37;;;;;;;2.88;2.67;;;5.60;99.90;;;;;;5045986;28;20231;-77
2021/11/21 05:06:04;;;;;;;3.17;2.97;;;5.60;99.90;;;;;;5044620;28;20520;-76
2021/11/21 05:08:31;;;;;;;3.10;2.90;;;5.60;99.90;;;;;;5042195;28;20222;-74
2021/11/21 05:10:58;;;;;;;2.58;2.47;;;5.50;99.90;;;;;;5044986;28;20234;-77
2021/11/21 05:13:27;;;;;;;3.03;2.83;;;5.50;99.90;;;;;;5047282;28;20347;-76
2021/11/21 05:15:54;;;;;;;2.67;2.58;;;5.50;99.90;;;;;;5044490;28;20218;-76
2021/11/21 05:18:21;;;;;;;2.78;2.60;;;5.50;99.90;;;;;;5043344;28;20648;-77
2021/11/21 05:20:48;;;;;;;3.05;2.85;;;5.50;99.90;;;;;;5039330;28;20231;-77
2021/11/21 05:23:16;;;;;;;3.13;2.90;;;5.50;99.90;;;;;;5045151;28;20238;-77
2021/11/21 05:25:43;;;;;;;3.17;2.88;;;5.50;99.90;;;;;;5036883;28;20223;-77
2021/11/21 05:28:10;;;;;;;2.53;2.42;;;5.50;99.90;;;;;;5044734;28;20218;-77
2021/11/21 05:30:40;;;;;;;2.78;2.60;;;5.50;99.90;;;;;;5040959;28;20631;-77
2021/11/21 05:33:07;;;;;;;2.78;2.65;;;5.50;99.90;;;;;;5045823;28;20223;-77
2021/11/21 05:35:34;;;;;;;2.80;2.63;;;5.50;99.90;;;;;;5042239;28;20237;-76
2021/11/21 05:38:01;;;;;;;3.00;2.80;;;5.50;99.90;;;;;;5044438;28;20226;-77
2021/11/21 05:40:28;;;;;;;2.55;2.35;;;5.40;99.90;;;;;;5040595;28;20226;-77
2021/11/21 05:42:56;;;;;;;3.05;2.85;;;5.40;99.90;;;;;;5046433;28;20222;-77
2021/11/21 05:45:23;;;;;;;3.03;2.83;;;5.40;99.90;;;;;;5045938;28;20230;-76
2021/11/21 05:47:52;;;;;;;3.08;2.78;;;5.40;99.90;;;;;;5047201;28;20700;-77
2021/11/21 05:50:19;;;;;;;3.30;3.10;;;5.40;99.90;;;;;;5041662;28;20242;-76
2021/11/21 05:52:48;;;;;;;3.17;2.97;;;5.30;99.90;;;;;;5042522;28;20238;-75
2021/11/21 05:55:16;;;;;;;3.30;3.10;;;5.30;99.90;;;;;;5039253;28;20242;-75
2021/11/21 05:57:43;;;;;;;2.92;2.72;;;5.30;99.90;;;;;;5043368;28;20223;-75
2021/11/21 06:00:14;;;;;;;3.33;3.13;;;5.30;99.90;;;;;;5045262;28;20218;-76
2021/11/21 06:02:41;;;;;;;2.97;2.78;;;5.30;99.90;;;;;;5044933;28;20888;-75
2021/11/21 06:05:11;;;;;;;3.22;3.03;;;5.30;99.90;;;;;;5038356;28;20234;-78
2021/11/21 06:07:38;;;;;;;3.00;2.80;;;5.30;99.90;;;;;;5046732;28;20223;-76
2021/11/21 06:10:07;;;;;;;2.58;2.47;;;5.30;99.90;;;;;;5044068;28;20239;-76
2021/11/21 06:12:34;;;;;;;2.80;2.60;;;5.30;99.90;;;;;;5043462;28;20227;-77
2021/11/21 06:15:01;;;;;;;3.10;2.90;;;5.30;99.90;;;;;;5042468;28;20218;-77
2021/11/21 06:17:28;;;;;;;3.15;2.85;;;5.30;99.90;;;;;;5041446;28;20727;-77
2021/11/21 06:19:56;;;;;;;3.28;2.97;;;5.30;99.90;;;;;;5043923;28;20230;-76
2021/11/21 06:22:24;;;;;;;3.08;2.83;;;5.30;99.90;;;;;;5043807;28;20229;-77
2021/11/21 06:24:52;;;;;;;3.13;2.92;;;5.20;99.90;;;;;;5044679;28;20235;-77
2021/11/21 06:27:19;;;;;;;2.83;2.63;;;5.10;99.90;;;;;;5040181;28;20229;-77
2021/11/21 06:29:46;;;;;;;3.30;3.10;;;5.10;99.90;;;;;;5041398;28;20222;-77
2021/11/21 06:32:13;;;;;;;2.95;2.75;;;5.00;99.90;;;;;;5040645;28;20239;-77
2021/11/21 06:34:40;;;;;;;2.42;2.33;;;5.00;99.90;;;;;;5041632;28;20227;-77
2021/11/21 06:37:09;;;;;;;4.00;3.65;;;5.10;99.90;;;;;;5040210;28;20229;-77
2021/11/21 06:39:40;;;;;;;2.88;2.67;;;5.10;99.90;;;;;;5045208;28;20222;-76
2021/11/21 06:42:08;;;;;;;3.70;3.50;;;5.10;99.90;;;;;;5038661;28;20241;-75
2021/11/21 06:44:35;;;;;;;3.60;3.35;;;5.10;99.90;;;;;;5045043;28;20218;-77
2021/11/21 06:47:03;;;;;;;3.78;3.47;;;5.10;99.90;;;;;;5041928;28;20223;-77
2021/11/21 06:49:30;;;;;;;3.40;3.10;;;5.10;99.90;;;;;;5039832;28;20219;-76
2021/11/21 06:51:57;;;;;;;3.63;3.33;;;5.20;99.90;;;;;;5042465;28;20597;-77
2021/11/21 06:54:25;;;;;;;3.80;3.50;;;5.10;99.90;;;;;;5042542;28;20242;-77
2021/11/21 06:56:53;;;;;;;3.88;3.47;;;5.10;99.90;;;;;;5042483;28;20624;-77
2021/11/21 06:59:20;;;;;;;4.30;4.00;;;5.10;99.90;;;;;;5036638;28;20230;-77
2021/11/21 07:01:47;;;;;;;5.05;4.22;;;5.10;99.90;;;;;;5046492;28;20701;-77
2021/11/21 07:04:14;;;;;;;4.15;3.85;;;5.10;99.90;;;;;;5045388;28;20706;-76
2021/11/21 07:06:43;;;;;;;3.95;3.35;;;5.10;99.90;;;;;;5043499;28;20223;-77
2021/11/21 07:09:13;;;;;;;3.38;3.17;;;5.10;99.90;;;;;;5042477;28;21030;-77
2021/11/21 07:11:41;;;;;;;3.58;3.28;;;5.10;99.90;;;;;;5036843;28;20240;-76
2021/11/21 07:14:11;;;;;;;3.33;3.13;;;5.40;99.90;;;;;;5053233;23;20621;-74
2021/11/21 07:16:39;;;;;;;3.15;2.95;;;5.50;99.90;;;;;;5012743;28;20255;-74
2021/11/21 07:19:06;;;;;;;3.80;3.50;;;5.40;99.90;;;;;;5016407;28;20228;-74
2021/11/21 07:21:33;;;;;;;3.03;2.83;;;5.40;99.90;;;;;;5020936;28;20246;-74
2021/11/21 07:24:00;;;;;;;3.28;2.97;;;5.40;99.90;;;;;;5018824;28;20230;-74
2021/11/21 07:26:27;;;;;;;3.50;3.20;;;5.40;99.90;;;;;;5002768;28;20231;-74
2021/11/21 07:28:54;;;;;;;3.15;2.95;;;5.30;99.90;;;;;;5003842;28;20231;-74
2021/11/21 07:31:23;;;;;;;3.50;3.20;;;5.30;99.90;;;;;;4999425;28;20239;-74
2021/11/21 07:33:50;;;;;;;3.83;3.53;;;5.30;99.90;;;;;;5002458;28;20235;-74
2021/11/21 07:36:17;;;;;;;3.75;3.45;;;5.30;99.90;;;;;;5003932;28;20247;-74
2021/11/21 07:38:44;;;;;;;3.30;3.10;;;5.30;99.90;;;;;;5002255;28;20711;-73
2021/11/21 07:41:11;;;;;;;3.20;3.00;;;5.30;99.90;;;;;;4999690;28;20232;-74
2021/11/21 07:43:39;;;;;;;3.40;3.20;;;5.30;99.90;;;;;;5002190;28;20838;-74
2021/11/21 07:46:06;;;;;;;3.70;3.40;;;5.40;99.90;;;;;;5004231;28;20243;-74
2021/11/21 07:48:35;;;;;;;3.33;3.13;;;5.40;99.90;;;;;;5004664;28;20739;-74
2021/11/21 07:51:02;;;;;;;3.58;3.28;;;5.40;99.90;;;;;;5007060;28;20219;-74
2021/11/21 07:53:30;;;;;;;3.55;3.35;;;5.40;99.90;;;;;;5017124;28;20235;-74
2021/11/21 07:55:57;;;;;;;3.58;3.28;;;5.60;99.90;;;;;;5005969;28;20231;-74
2021/11/21 07:58:25;;;;;;;5.05;3.40;;;6.50;99.90;;;;;;5009673;28;20722;-75
2021/11/21 08:00:52;;;;;;;3.92;3.63;;;7.60;99.90;;;;;;5007434;28;20224;-74
2021/11/21 08:03:19;;;;;;;3.10;2.90;;;8.60;99.90;;;;;;5004386;28;20235;-74
2021/11/21 08:05:48;;;;;;;3.25;3.05;;;9.50;99.90;;;;;;5007731;28;20243;-75
2021/11/21 08:08:15;;;;;;;3.70;3.40;;;10.20;99.90;;;;;;5003270;28;20238;-75
2021/11/21 08:10:42;;;;;;;3.50;3.10;;;10.90;99.90;;;;;;5005710;28;20228;-76
2021/11/21 08:13:10;;;;;;;3.83;3.50;;;11.50;99.90;;;;;;5009412;28;20232;-76
2021/11/21 08:15:37;;;;;;;3.38;3.17;;;11.80;99.90;;;;;;5007733;28;20240;-78
2021/11/21 08:18:04;;;;;;;4.13;3.75;;;12.10;99.90;;;;;;5009299;28;20234;-77
2021/11/21 08:20:31;;;;;;;3.97;3.67;;;12.50;99.90;;;;;;5006560;28;20235;-74
2021/11/21 08:23:00;;;;;;;4.22;3.92;;;12.70;99.90;;;;;;5009737;28;20223;-75
2021/11/21 08:25:27;;;;;;;4.13;3.75;;;12.80;99.90;;;;;;5007895;28;20244;-75
2021/11/21 08:27:54;;;;;;;3.70;3.50;;;13.00;99.90;;;;;;5010832;28;20233;-75
2021/11/21 08:30:22;;;;;;;4.07;3.78;;;13.30;99.90;;;;;;5006553;28;20602;-74
2021/11/21 08:32:49;;;;;;;3.70;3.40;;;13.40;99.90;;;;;;5007258;28;20236;-74
2021/11/21 08:35:16;;;;;;;3.65;3.35;;;13.60;99.90;;;;;;5008481;28;20236;-75
2021/11/21 08:37:43;;;;;;;3.83;3.42;;;13.80;99.90;;;;;;5004068;28;20224;-73
2021/11/21 08:40:12;;;;;;;4.20;3.90;;;14.00;99.90;;;;;;5005748;28;20243;-80
2021/11/21 08:42:40;;;;;;;4.05;3.70;;;14.20;99.90;;;;;;5004541;28;20232;-78
2021/11/21 08:45:08;;;;;;;4.45;4.05;;;14.40;99.90;;;;;;5009841;28;20240;-79
2021/11/21 08:47:35;;;;;;;4.10;3.70;;;14.70;99.90;;;;;;5011807;28;20242;-79
2021/11/21 08:50:03;;;;;;;4.00;3.60;;;14.90;99.90;;;;;;5008973;28;20255;-75
2021/11/21 08:52:30;;;;;;;3.70;3.40;;;15.00;99.90;;;;;;5004673;28;20255;-76
2021/11/21 08:54:58;;;;;;;3.80;3.50;;;15.10;99.90;;;;;;5007744;28;20232;-74
2021/11/21 08:57:26;;;;;;;3.75;3.45;;;15.10;99.90;;;;;;5006643;28;20236;-77
2021/11/21 08:59:53;;;;;;;4.00;3.60;;;15.00;99.90;;;;;;5008087;28;20220;-74
2021/11/21 09:02:20;;;;;;;3.63;3.33;;;15.30;99.90;;;;;;5007781;28;20224;-74
2021/11/21 09:04:48;;;;;;;3.75;3.45;;;16.20;99.90;;;;;;5008254;28;20243;-76
2021/11/21 09:07:15;;;;;;;3.70;3.40;;;17.30;99.90;;;;;;5006571;28;20239;-75
2021/11/21 09:09:42;;;;;;;3.92;3.50;;;18.90;99.90;;;;;;5006896;28;20722;-74
2021/11/21 09:12:10;;;;;;;3.38;3.08;;;20.30;99.90;;;;;;5007486;28;20227;-76
2021/11/21 09:14:38;;;;;;;3.70;3.38;;;21.70;99.90;;;;;;5002533;28;20242;-74
2021/11/21 09:17:05;;;;;;;5.15;4.53;;;22.80;99.90;;;;;;5004203;28;20224;-78
2021/11/21 09:19:33;;;;;;;4.70;4.30;;;23.50;97.60;;;;;;5004821;28;20224;-80
2021/11/21 09:22:00;;;;;;;5.30;4.65;;;23.90;95.20;;;;;;5002190;28;20725;-78
2021/11/21 09:24:27;;;;;;;4.20;3.80;;;24.20;92.90;;;;;;5006031;28;20319;-75
2021/11/21 09:26:54;;;;;;;3.75;3.42;;;24.30;91.50;;;;;;5006324;28;20227;-81
2021/11/21 09:29:21;;;;;;;3.70;3.40;;;24.00;91.60;;;;;;5004761;28;20228;-79
2021/11/21 09:31:49;;;;;;;3.67;3.38;;;23.60;91.90;;;;;;5002359;28;20251;-76
2021/11/21 09:34:17;;;;;;;3.33;2.97;;;22.80;92.50;;;;;;5009397;28;20239;-80
2021/11/21 09:36:45;;;;;;;3.33;3.03;;;21.70;94.30;;;;;;5006110;28;20224;-75
2021/11/21 09:39:12;;;;;;;3.47;3.15;;;20.40;96.20;;;;;;5007556;28;20275;-75
2021/11/21 09:41:39;;;;;;;3.65;3.35;;;19.20;97.90;;;;;;5004753;28;20224;-76
2021/11/21 09:44:07;;;;;;;4.00;3.60;;;18.30;99.90;;;;;;5004772;28;20718;-77
2021/11/21 09:46:34;;;;;;;4.07;3.30;;;17.80;99.90;;;;;;5002213;28;20232;-74
2021/11/21 09:49:03;;;;;;;6.45;3.75;;;17.40;99.90;;;;;;5006817;28;20220;-75
2021/11/21 09:51:30;;;;;;;3.97;3.60;;;17.10;99.90;;;;;;5003242;28;20634;-76
2021/11/21 09:53:57;;;;;;;4.13;3.53;;;16.90;99.90;;;;;;5006078;28;20231;-79
2021/11/21 09:56:24;;;;;;;4.95;3.60;;;16.70;99.90;;;;;;5003171;28;20239;-78
2021/11/21 09:58:52;;;;;;;3.67;3.38;;;16.40;99.90;;;;;;5000456;28;20224;-75
2021/11/21 10:01:37;;;;;;;3.67;3.38;;;16.30;99.90;;;;;;5004336;28;20612;-81
2021/11/21 10:04:06;;;;;;;3.60;3.30;;;16.20;99.90;;;;;;5004361;28;20295;-77
2021/11/21 10:06:36;;;;;;;3.50;3.20;;;16.00;99.90;;;;;;5003556;28;20223;-75
2021/11/21 10:09:05;;;;;;;3.88;3.15;;;16.10;99.90;;;;;;5001897;28;20779;-75
2021/11/21 10:11:32;;;;;;;4.00;3.35;;;16.00;99.90;;;;;;5002692;28;20235;-76
2021/11/21 10:14:05;;;;;;;4.15;3.75;;;15.80;99.90;;;;;;5004608;28;20686;-79
2021/11/21 10:16:34;;;;;;;3.70;3.05;;;15.90;99.90;;;;;;5006713;28;20240;-78
2021/11/21 10:19:04;;;;;;;3.42;3.13;;;15.70;99.90;;;;;;5006056;28;20713;-79
2021/11/21 10:21:35;;;;;;;3.65;3.30;;;15.80;99.90;;;;;;5002474;28;20232;-73
2021/11/21 10:24:14;;;;;;;3.20;2.90;;;15.90;99.90;;;;;;5004662;28;20267;-78
2021/11/21 10:26:41;;;;;;;3.53;3.22;;;16.10;99.90;;;;;;5005412;28;20231;-76
2021/11/21 10:29:26;;;;;;;4.22;3.58;;;15.90;99.90;;;;;;5003082;28;20224;-77
2021/11/21 10:31:53;;;;;;;4.65;3.17;;;16.10;99.90;;;;;;5011068;28;20224;-74
2021/11/21 10:34:20;;;;;;;3.85;3.20;;;16.10;99.90;;;;;;5007715;28;20228;-74
2021/11/21 10:36:49;;;;;;;3.47;3.17;;;16.20;99.90;;;;;;5006140;28;20240;-74
2021/11/21 10:39:20;;;;;;;3.58;3.10;;;16.50;99.90;;;;;;5008018;28;20220;-76
2021/11/21 10:41:51;;;;;;;3.17;2.97;;;16.70;99.90;;;;;;5005500;28;20227;-76
2021/11/21 10:44:21;;;;;;;3.25;2.97;;;16.60;99.90;;;;;;5002185;28;20240;-76
2021/11/21 10:46:52;;;;;;;2.92;2.72;;;16.60;99.90;;;;;;5003291;28;20251;-78
2021/11/21 10:49:31;;;;;;;2.88;2.67;;;16.70;99.90;;;;;;5006088;28;20228;-75
2021/11/21 10:52:18;;;;;;;2.60;2.40;;;16.70;99.90;;;;;;5003903;28;20222;-80
2021/11/21 10:54:47;;;;;;;2.78;2.45;;;16.40;99.90;;;;;;5007154;28;20232;-77
2021/11/21 10:57:18;;;;;;;2.92;2.55;;;16.10;99.90;;;;;;5001775;28;20236;-77
2021/11/21 10:59:51;;;;;;;2.42;2.22;;;16.20;99.90;;;;;;5003856;28;20235;-78
2021/11/21 11:02:22;;;;;;;3.15;2.22;;;16.40;99.90;;;;;;5001884;28;20224;-80
2021/11/21 11:05:07;;;;;;;2.50;2.30;;;16.30;99.90;;;;;;5003388;28;20228;-80
2021/11/21 11:07:39;;;;;;;3.10;2.53;;;16.20;99.90;;;;;;5003698;28;20230;-77
2021/11/21 11:10:13;;;;;;;2.85;2.65;;;16.10;99.90;;;;;;5002572;28;20627;-75
2021/11/21 11:12:42;;;;;;;2.63;2.42;;;16.10;99.90;;;;;;5007272;28;20241;-79
2021/11/21 11:15:10;;;;;;;2.60;2.40;;;16.40;99.90;;;;;;5006101;28;20235;-79
2021/11/21 11:17:37;;;;;;;2.97;2.67;;;16.60;99.90;;;;;;5006825;28;20610;-77
2021/11/21 11:20:07;;;;;;;2.83;2.63;;;16.20;99.90;;;;;;5002860;28;20235;-76
2021/11/21 11:22:36;;;;;;;2.50;2.30;;;15.90;99.90;;;;;;5006820;28;20738;-76
2021/11/21 11:25:07;;;;;;;4.32;2.63;;;15.90;99.90;;;;;;5006249;28;20228;-74
2021/11/21 11:27:44;;;;;;;2.60;2.40;;;16.00;99.90;;;;;;5005403;28;20262;-74
2021/11/21 11:30:12;;;;;;;2.80;2.53;;;16.10;99.90;;;;;;5002666;28;20236;-75
2021/11/21 11:32:41;;;;;;;7.47;3.28;;;16.10;99.90;;;;;;5002413;28;20513;-77
2021/11/21 11:35:29;;;;;;;4.32;2.55;;;15.90;99.90;;;;;;5002894;28;20243;-73
2021/11/21 11:37:59;;;;;;;2.60;2.40;;;15.70;99.90;;;;;;5004470;28;20255;-74
2021/11/21 11:40:44;;;;;;;2.28;2.08;;;15.50;99.90;;;;;;5003628;28;20235;-77
2021/11/21 11:43:29;;;;;;;2.83;2.55;;;15.20;99.90;;;;;;4998077;28;20251;-77
2021/11/21 11:45:58;;;;;;;8.95;3.03;;;15.30;99.90;;;;;;5003695;28;20230;-75
2021/11/21 11:48:38;;;;;;;2.90;2.70;;;15.10;99.90;;;;;;5002184;28;20220;-77
2021/11/21 11:51:08;;;;;;;2.97;2.63;;;15.40;99.90;;;;;;5000153;28;20259;-78
2021/11/21 11:53:40;;;;;;;2.90;2.70;;;15.50;99.90;;;;;;5004493;28;20216;-78
2021/11/21 11:56:20;;;;;;;2.90;2.60;;;15.40;99.90;;;;;;5002893;28;20239;-74
2021/11/21 11:58:53;;;;;;;9.13;2.40;;;15.60;99.90;;;;;;5000542;28;20255;-75
2021/11/21 12:01:51;;;;;;;2.67;2.47;;;15.90;99.90;;;;;;4997135;28;20224;-79
2021/11/21 12:04:50;;;;;;;2.55;2.30;;;15.80;99.90;;;;;;5000648;28;20247;-78
2021/11/21 12:07:26;;;;;;;2.58;2.38;;;15.90;99.90;;;;;;4995662;28;20235;-80
2021/11/21 12:10:01;;;;;;;2.47;2.28;;;16.00;99.90;;;;;;5002888;28;20642;-79
2021/11/21 12:13:02;;;;;;;2.35;2.13;;;15.80;99.90;;;;;;4999331;28;20234;-78
2021/11/21 12:15:44;;;;;;;3.47;3.00;;;15.20;99.90;;;;;;5001675;28;20238;-74
2021/11/21 12:18:11;;;;;;;2.72;2.53;;;15.00;99.90;;;;;;5004932;28;20258;-76
2021/11/21 12:20:43;;;;;;;3.05;2.58;;;15.30;99.90;;;;;;5002857;28;20228;-75
2021/11/21 12:23:10;;;;;;;2.95;2.70;;;15.30;99.90;;;;;;5002079;28;20236;-76
2021/11/21 12:25:39;;;;;;;2.80;2.60;;;15.50;99.90;;;;;;5000412;28;20764;-81
2021/11/21 12:28:06;;;;;;;3.47;2.85;;;15.30;99.90;;;;;;5002185;28;20236;-77
2021/11/21 12:30:36;;;;;;;3.00;2.80;;;14.90;99.90;;;;;;5002853;28;20232;-78
2021/11/21 12:33:06;;;;;;;2.67;2.47;;;14.90;99.90;;;;;;4998563;28;20710;-78
2021/11/21 12:35:35;;;;;;;3.03;2.83;;;15.10;99.90;;;;;;5003843;28;20234;-78
2021/11/21 12:38:05;;;;;;;2.80;2.60;;;15.20;99.90;;;;;;5005775;28;20224;-77
2021/11/21 12:40:35;;;;;;;2.58;2.38;;;15.20;99.90;;;;;;5005888;28;20231;-74
2021/11/21 12:43:07;;;;;;;2.65;2.45;;;15.10;99.90;;;;;;5007002;28;20235;-74
2021/11/21 12:45:37;;;;;;;3.13;2.75;;;14.90;99.90;;;;;;5005543;28;20240;-75
2021/11/21 12:48:06;;;;;;;2.67;2.47;;;14.70;99.90;;;;;;5007023;28;20268;-79
2021/11/21 12:50:37;;;;;;;3.13;2.83;;;14.70;99.90;;;;;;5004805;28;20323;-73
2021/11/21 12:53:09;;;;;;;4.20;3.85;;;14.80;99.90;;;;;;5005743;28;20220;-73
2021/11/21 12:55:40;;;;;;;3.83;3.53;;;14.60;99.90;;;;;;5005330;28;20641;-78
2021/11/21 12:58:14;;;;;;;4.45;3.95;;;14.60;99.90;;;;;;5005445;28;20232;-75
2021/11/21 13:00:41;;;;;;;3.83;3.53;;;14.30;99.90;;;;;;5005503;28;20235;-78